Montreal / St-Hubert Helicraft

CTG2 · Quebec, 加拿大

罗盘
风向 的 风向 240° 直升机
风向 到 风: 10 kt, 阵阵 16 kt, 3 beaufort
0 ft 2.000 4.000 6.000 8.000 10.000
Cloud Cloud
FEW 2.500
Cloud Cloud Cloud Cloud
SCT 6.000
Cloud Cloud Cloud Cloud
SCT 10.000
METAR CYHU 231900Z AUTO 24010G16KT 9SM FEW025 SCT060 SCT100 07/02 A2944 RMK SLP972

METAR Montreal / St-Hubert Helicraft - CTG2

Montreal / St-Hubert Helicraft是,加拿大中的直升机场。 该机场位于纬度45,53192和经度-73,41086。 该机场的伪ICAO代码为CTG2。 机场在Montreal FIR中。

该航空气象观测是针对Montréal / Saint-Hubert Airport在2024年2月23日 14:00, 当地时间进行的。

机场观察

风向为240°,速度为10 kt。 已测得16 kt的阵风。

可见度为9 mi。

有几云在2.500 ft的高度, 疏云,零星散落的云朵在6.000 ft的高度 和 疏云,零星散落的云朵在10.000 ft的高度。 没有观察到天花板。

温度为7 °C,阵风为3 °C。 露点为2 °C,相对湿度为71%。 海平面上的气压为29,44 inHg (QNH)。

白天

今天,太阳从06:42升起,在17:31降落。 这适用于Montreal / St-Hubert Helicraft,世界夏令时可能有所不同。 当地时间与世界标准时间之间的时差为-5 小时。 当前,没有夏令时有效。

公司介绍

我们没有关于这个机场的公司信息。

体会

到Vliegles.nl去找飞行课程,跳伞和其他飞行体验。 浏览页面,了解Montreal / St-Hubert Helicraft附近所有可用的活动。 你也可以使用搜索功能来寻找你所在地附近的特定飞行课程、跳伞或其他飞行体验。

乌云

2.500 ft FEW 几云
6.000 ft SCT 疏云,零星散落的云朵
10.000 ft SCT 疏云,零星散落的云朵

温度 & 天气

温度 7 °C
露点 2 °C
相对湿度 71%
风寒 3 °C
Kp-index 0 (0-9)

评论

SLP972海平面压力为29,45 inHg (29,45 inHg)

白天

日出
06:42
中午
12:07
日落
17:31 (2:22)

小工具

你想在你的网站上有一个关于Montreal / St-Hubert Helicraft的当前航空天气(METAR)的小部件吗?

显示HTML代码
?>